createdAt,value
2023-05-01T00:02:24.085Z,99.90
2023-05-01T00:04:51.482Z,99.90
2023-05-01T00:07:18.636Z,99.90
2023-05-01T00:09:46.174Z,99.90
2023-05-01T00:12:13.402Z,99.90
2023-05-01T00:14:40.645Z,99.90
2023-05-01T00:17:07.909Z,99.90
2023-05-01T00:19:35.331Z,99.90
2023-05-01T00:22:02.819Z,99.90
2023-05-01T00:24:29.977Z,99.90
2023-05-01T00:26:57.139Z,99.90
2023-05-01T00:29:24.345Z,99.90
2023-05-01T00:31:51.642Z,99.90
2023-05-01T00:34:18.941Z,99.90
2023-05-01T00:36:47.511Z,99.90
2023-05-01T00:39:15.708Z,99.90
2023-05-01T00:41:42.788Z,99.90
2023-05-01T00:44:09.879Z,99.90
2023-05-01T00:46:37.708Z,99.90
2023-05-01T00:49:05.043Z,99.90
2023-05-01T00:51:32.302Z,99.90
2023-05-01T00:54:00.991Z,99.90
2023-05-01T00:56:28.255Z,99.90
2023-05-01T00:58:56.409Z,99.90
2023-05-01T01:01:24.134Z,99.90
2023-05-01T01:03:54.938Z,99.90
2023-05-01T01:06:56.258Z,99.90
2023-05-01T01:09:47.505Z,99.90
2023-05-01T01:12:39.280Z,99.90
2023-05-01T01:15:09.160Z,99.90
2023-05-01T01:17:51.856Z,99.90
2023-05-01T01:20:34.299Z,99.90
2023-05-01T01:23:29.099Z,99.90
2023-05-01T01:26:03.783Z,99.90
2023-05-01T01:28:56.823Z,99.90
2023-05-01T01:31:59.100Z,99.90
2023-05-01T01:34:33.155Z,99.90
2023-05-01T01:37:11.951Z,99.90
2023-05-01T01:40:11.881Z,99.90
2023-05-01T01:42:45.262Z,99.90
2023-05-01T01:45:26.562Z,99.90
2023-05-01T01:47:55.013Z,99.90
2023-05-01T01:50:26.946Z,99.90
2023-05-01T01:52:55.235Z,99.90
2023-05-01T01:55:28.015Z,99.90
2023-05-01T01:57:56.445Z,99.90
2023-05-01T02:00:24.171Z,99.90
2023-05-01T02:02:52.831Z,99.90
2023-05-01T02:05:22.126Z,99.90
2023-05-01T02:07:52.271Z,99.90
2023-05-01T02:10:21.200Z,99.90
2023-05-01T02:12:51.189Z,99.90
2023-05-01T02:15:19.983Z,99.90
2023-05-01T02:17:50.180Z,99.90
2023-05-01T02:20:18.350Z,99.90
2023-05-01T02:22:46.489Z,99.90
2023-05-01T02:25:15.198Z,99.90
2023-05-01T02:27:53.706Z,99.90
2023-05-01T02:30:20.981Z,99.90
2023-05-01T02:32:48.207Z,99.90
2023-05-01T02:35:17.205Z,99.90
2023-05-01T02:37:45.438Z,99.90
2023-05-01T02:40:15.258Z,99.90
2023-05-01T02:42:46.413Z,99.90
2023-05-01T02:45:20.779Z,99.90
2023-05-01T02:47:56.651Z,99.90
2023-05-01T02:50:25.277Z,99.90
2023-05-01T02:52:52.650Z,99.90
2023-05-01T02:55:19.921Z,99.90
2023-05-01T02:57:47.407Z,99.90
2023-05-01T03:00:14.704Z,99.90
2023-05-01T03:02:42.476Z,99.90
2023-05-01T03:05:10.137Z,99.90
2023-05-01T03:07:37.321Z,99.90
2023-05-01T03:10:08.363Z,99.90
2023-05-01T03:12:35.472Z,99.90
2023-05-01T03:15:02.774Z,99.90
2023-05-01T03:17:29.843Z,99.90
2023-05-01T03:19:57.340Z,99.90
2023-05-01T03:22:24.735Z,99.90
2023-05-01T03:24:52.284Z,99.90
2023-05-01T03:27:19.433Z,99.90
2023-05-01T03:29:47.282Z,99.90
2023-05-01T03:32:15.196Z,99.90
2023-05-01T03:34:42.362Z,99.90
2023-05-01T03:37:09.460Z,99.90
2023-05-01T03:39:37.325Z,99.90
2023-05-01T03:42:05.428Z,99.90
2023-05-01T03:44:32.942Z,99.90
2023-05-01T03:46:59.986Z,99.90
2023-05-01T03:49:27.337Z,99.90
2023-05-01T03:51:54.556Z,99.90
2023-05-01T03:54:21.672Z,99.90
2023-05-01T03:56:48.730Z,99.90
2023-05-01T03:59:15.803Z,99.90
2023-05-01T04:01:43.077Z,99.90
2023-05-01T04:04:10.601Z,99.90
2023-05-01T04:06:37.827Z,99.90
2023-05-01T04:09:05.041Z,99.90
2023-05-01T04:11:32.218Z,99.90
2023-05-01T04:13:59.471Z,99.90
2023-05-01T04:16:26.701Z,99.90
2023-05-01T04:18:53.908Z,99.90
2023-05-01T04:21:21.026Z,99.90
2023-05-01T04:23:48.100Z,99.90
2023-05-01T04:26:15.550Z,99.90
2023-05-01T04:28:42.798Z,99.90
2023-05-01T04:31:10.116Z,99.90
2023-05-01T04:33:37.896Z,99.90
2023-05-01T04:36:05.401Z,99.90
2023-05-01T04:38:33.197Z,99.90
2023-05-01T04:41:01.146Z,99.90
2023-05-01T04:43:28.261Z,99.90
2023-05-01T04:45:55.661Z,99.90
2023-05-01T04:48:23.227Z,99.90
2023-05-01T04:50:50.569Z,99.90
2023-05-01T04:53:17.791Z,99.90
2023-05-01T04:55:44.856Z,99.90
2023-05-01T04:58:12.073Z,99.90
2023-05-01T05:00:39.249Z,99.90
2023-05-01T05:03:07.067Z,99.90
2023-05-01T05:05:34.520Z,99.90
2023-05-01T05:08:02.526Z,99.90
2023-05-01T05:10:29.639Z,99.90
2023-05-01T05:12:57.014Z,99.90
2023-05-01T05:15:24.294Z,99.90
2023-05-01T05:17:51.629Z,99.90
2023-05-01T05:20:18.926Z,99.90
2023-05-01T05:22:46.135Z,99.90
2023-05-01T05:25:13.314Z,99.90
2023-05-01T05:27:40.479Z,99.90
2023-05-01T05:30:08.490Z,99.90
2023-05-01T05:32:35.733Z,99.90
2023-05-01T05:35:03.417Z,99.90
2023-05-01T05:37:30.577Z,99.90
2023-05-01T05:39:58.122Z,99.90
2023-05-01T05:42:25.690Z,99.90
2023-05-01T05:44:53.446Z,99.90
2023-05-01T05:47:20.708Z,99.90
2023-05-01T05:49:48.707Z,99.90
2023-05-01T05:52:16.134Z,99.90
2023-05-01T05:54:43.388Z,99.90
2023-05-01T05:57:10.570Z,99.90
2023-05-01T05:59:38.325Z,99.90
2023-05-01T06:02:06.677Z,99.90
2023-05-01T06:04:34.106Z,99.90
2023-05-01T06:07:01.515Z,99.90
2023-05-01T06:09:28.803Z,99.90
2023-05-01T06:11:55.907Z,99.90
2023-05-01T06:14:23.114Z,97.30
2023-05-01T06:16:50.325Z,95.60
2023-05-01T06:19:17.464Z,95.20
2023-05-01T06:21:44.634Z,93.70
2023-05-01T06:24:12.733Z,93.90
2023-05-01T06:26:39.872Z,94.20
2023-05-01T06:29:07.393Z,96.50
2023-05-01T06:31:34.645Z,97.10
2023-05-01T06:34:01.781Z,96.20
2023-05-01T06:36:28.929Z,93.10
2023-05-01T06:38:56.178Z,93.40
2023-05-01T06:41:23.713Z,92.50
2023-05-01T06:43:50.906Z,92.90
2023-05-01T06:46:18.131Z,91.00
2023-05-01T06:48:45.520Z,91.10
2023-05-01T06:51:15.075Z,90.70
2023-05-01T06:53:42.353Z,88.40
2023-05-01T06:56:09.524Z,87.10
2023-05-01T06:58:37.026Z,88.60
2023-05-01T07:01:05.650Z,91.30
2023-05-01T07:03:33.207Z,90.50
2023-05-01T07:06:00.653Z,89.10
2023-05-01T07:08:28.392Z,91.70
2023-05-01T07:10:55.608Z,90.00
2023-05-01T07:13:22.795Z,87.80
2023-05-01T07:15:51.691Z,89.10
2023-05-01T07:18:21.158Z,86.70
2023-05-01T07:20:50.199Z,88.50
2023-05-01T07:23:17.464Z,86.60
2023-05-01T07:25:46.321Z,88.20
2023-05-01T07:28:13.596Z,85.70
2023-05-01T07:30:40.779Z,84.80
2023-05-01T07:33:08.065Z,81.80
2023-05-01T07:35:35.271Z,82.40
2023-05-01T07:38:02.726Z,81.30
2023-05-01T07:40:29.836Z,80.00
2023-05-01T07:42:56.984Z,80.20
2023-05-01T07:45:24.025Z,81.10
2023-05-01T07:47:52.562Z,79.20
2023-05-01T07:50:19.801Z,79.20
2023-05-01T07:52:46.952Z,76.70
2023-05-01T07:55:14.197Z,75.50
2023-05-01T07:57:41.442Z,75.40
2023-05-01T08:00:09.431Z,74.20
2023-05-01T08:02:36.861Z,73.40
2023-05-01T08:05:04.344Z,72.10
2023-05-01T08:07:32.031Z,73.70
2023-05-01T08:10:00.975Z,74.90
2023-05-01T08:12:29.743Z,73.40
2023-05-01T08:14:56.942Z,76.20
2023-05-01T08:17:24.113Z,76.20
2023-05-01T08:19:51.388Z,76.70
2023-05-01T08:22:18.545Z,76.90
2023-05-01T08:24:45.583Z,78.40
2023-05-01T08:27:12.678Z,76.50
2023-05-01T08:29:39.787Z,76.30
2023-05-01T08:32:07.044Z,76.60
2023-05-01T08:34:34.279Z,76.50
2023-05-01T08:37:01.449Z,76.80
2023-05-01T08:39:28.571Z,75.60
2023-05-01T08:41:56.229Z,75.30
2023-05-01T08:44:28.292Z,75.00
2023-05-01T08:47:15.349Z,76.00
2023-05-01T08:49:43.258Z,75.70
2023-05-01T08:52:15.093Z,74.20
2023-05-01T08:54:47.326Z,74.10
2023-05-01T08:57:15.422Z,75.30
2023-05-01T08:59:43.114Z,75.50
2023-05-01T09:02:10.771Z,73.60
2023-05-01T09:04:39.873Z,74.50
2023-05-01T09:07:07.408Z,73.20
2023-05-01T09:09:35.238Z,72.50
2023-05-01T09:12:22.110Z,73.70
2023-05-01T09:14:53.074Z,73.20
2023-05-01T09:17:21.934Z,73.50
2023-05-01T09:19:50.198Z,73.20
2023-05-01T09:22:19.117Z,73.40
2023-05-01T09:24:47.127Z,72.80
2023-05-01T09:27:14.875Z,70.50
2023-05-01T09:29:47.758Z,70.40
2023-05-01T09:32:22.588Z,70.70
2023-05-01T09:34:51.889Z,70.50
2023-05-01T09:37:29.293Z,71.80
2023-05-01T09:40:15.126Z,70.20
2023-05-01T09:42:50.968Z,69.70
2023-05-01T09:45:23.518Z,70.00
2023-05-01T09:47:50.670Z,69.10
2023-05-01T09:50:35.048Z,69.40
2023-05-01T09:53:04.939Z,67.70
2023-05-01T09:55:32.647Z,67.70
2023-05-01T09:57:59.930Z,68.20
2023-05-01T10:00:27.761Z,66.30
2023-05-01T10:02:55.177Z,66.60
2023-05-01T10:05:23.369Z,66.70
2023-05-01T10:08:02.372Z,65.60
2023-05-01T10:10:30.054Z,65.70
2023-05-01T10:13:12.705Z,65.90
2023-05-01T10:15:39.868Z,65.80
2023-05-01T10:18:10.062Z,64.50
2023-05-01T10:20:37.371Z,64.30
2023-05-01T10:23:04.538Z,64.70
2023-05-01T10:25:33.031Z,64.80
2023-05-01T10:28:04.955Z,64.70
2023-05-01T10:30:32.545Z,65.30
2023-05-01T10:33:00.338Z,64.00
2023-05-01T10:35:33.444Z,64.80
2023-05-01T10:38:03.064Z,64.00
2023-05-01T10:40:49.841Z,64.90
2023-05-01T10:43:30.996Z,64.90
2023-05-01T10:46:10.125Z,64.10
2023-05-01T10:48:43.984Z,64.20
2023-05-01T10:51:18.186Z,62.70
2023-05-01T10:53:46.829Z,63.20
2023-05-01T10:56:26.605Z,62.90
2023-05-01T10:58:53.636Z,62.90
2023-05-01T11:01:34.299Z,62.20
2023-05-01T11:04:05.889Z,63.30
2023-05-01T11:06:33.550Z,62.80
2023-05-01T11:09:02.071Z,62.60
2023-05-01T11:11:29.124Z,63.20
2023-05-01T11:14:04.475Z,62.50
2023-05-01T11:16:38.204Z,62.60
2023-05-01T11:19:08.913Z,61.60
2023-05-01T11:21:38.611Z,61.10
2023-05-01T11:24:06.925Z,61.80
2023-05-01T11:26:42.554Z,61.90
2023-05-01T11:29:11.225Z,61.50
2023-05-01T11:31:39.555Z,62.50
2023-05-01T11:34:07.355Z,60.50
2023-05-01T11:36:51.581Z,60.10
2023-05-01T11:39:19.620Z,60.10
2023-05-01T11:41:48.008Z,61.10
2023-05-01T11:44:18.965Z,60.80
2023-05-01T11:46:46.314Z,60.70
2023-05-01T11:49:13.480Z,61.40
2023-05-01T11:51:40.882Z,61.30
2023-05-01T11:54:10.226Z,60.20
2023-05-01T11:56:38.433Z,61.50
2023-05-01T11:59:17.158Z,59.30
2023-05-01T12:01:46.447Z,59.30
2023-05-01T12:04:23.342Z,58.70
2023-05-01T12:06:51.447Z,58.20
2023-05-01T12:09:23.313Z,59.40
2023-05-01T12:11:53.469Z,59.80
2023-05-01T12:14:21.909Z,60.60
2023-05-01T12:16:49.560Z,60.50
2023-05-01T12:19:17.643Z,59.70
2023-05-01T12:21:44.988Z,58.90
2023-05-01T12:24:16.291Z,59.80
2023-05-01T12:26:45.457Z,59.00
2023-05-01T12:29:12.986Z,60.00
2023-05-01T12:31:47.982Z,59.70
2023-05-01T12:34:15.407Z,59.80
2023-05-01T12:36:42.733Z,58.80
2023-05-01T12:39:13.146Z,58.90
2023-05-01T12:41:45.235Z,59.80
2023-05-01T12:44:25.389Z,60.00
2023-05-01T12:47:03.906Z,60.20
2023-05-01T12:49:32.680Z,59.10
2023-05-01T12:52:01.320Z,58.80
2023-05-01T12:54:39.631Z,57.90
2023-05-01T12:57:11.191Z,57.90
2023-05-01T12:59:40.274Z,58.40
2023-05-01T13:02:08.588Z,58.40
2023-05-01T13:04:36.273Z,58.80
2023-05-01T13:07:12.330Z,59.20
2023-05-01T13:09:39.623Z,58.50
2023-05-01T13:12:09.155Z,59.50
2023-05-01T13:14:40.581Z,58.00
2023-05-01T13:17:09.437Z,58.70
2023-05-01T13:19:37.622Z,58.50
2023-05-01T13:22:06.100Z,57.00
2023-05-01T13:24:44.952Z,56.90
2023-05-01T13:27:12.770Z,57.30
2023-05-01T13:29:42.521Z,56.40
2023-05-01T13:32:11.732Z,58.00
2023-05-01T13:34:42.935Z,57.80
2023-05-01T13:37:13.916Z,58.10
2023-05-01T13:39:45.194Z,57.90
2023-05-01T13:42:13.237Z,58.40
2023-05-01T13:44:58.787Z,58.60
2023-05-01T13:47:27.307Z,58.20
2023-05-01T13:49:55.046Z,58.40
2023-05-01T13:52:22.195Z,57.30
2023-05-01T13:54:49.417Z,57.30
2023-05-01T13:57:17.601Z,57.50
2023-05-01T13:59:46.984Z,58.00
2023-05-01T14:02:22.070Z,57.70
2023-05-01T14:04:49.402Z,57.80
2023-05-01T14:07:20.372Z,58.30
2023-05-01T14:09:55.097Z,58.00
2023-05-01T14:12:30.879Z,57.60
2023-05-01T14:14:59.904Z,58.60
2023-05-01T14:17:37.987Z,58.30
2023-05-01T14:20:06.962Z,58.80
2023-05-01T14:22:45.870Z,57.90
2023-05-01T14:25:34.940Z,58.10
2023-05-01T14:28:06.191Z,57.20
2023-05-01T14:30:37.584Z,58.00
2023-05-01T14:33:10.105Z,57.50
2023-05-01T14:35:42.334Z,57.50
2023-05-01T14:38:12.629Z,57.90
2023-05-01T14:40:44.228Z,57.60
2023-05-01T14:43:18.751Z,57.00
2023-05-01T14:45:46.827Z,56.80
2023-05-01T14:48:24.502Z,56.60
2023-05-01T14:50:52.944Z,56.10
2023-05-01T14:53:20.491Z,55.00
2023-05-01T14:55:52.215Z,53.60
2023-05-01T14:58:19.375Z,53.70
2023-05-01T15:00:46.525Z,52.80
2023-05-01T15:03:13.787Z,51.80
2023-05-01T15:05:41.961Z,52.20
2023-05-01T15:08:09.664Z,52.50
2023-05-01T15:10:37.886Z,54.10
2023-05-01T15:13:06.240Z,55.60
2023-05-01T15:15:33.468Z,57.20
2023-05-01T15:18:00.722Z,58.30
2023-05-01T15:20:28.191Z,58.20
2023-05-01T15:22:55.443Z,58.30
2023-05-01T15:25:22.619Z,58.40
2023-05-01T15:27:50.586Z,58.80
2023-05-01T15:30:17.724Z,59.20
2023-05-01T15:32:45.147Z,59.20
2023-05-01T15:35:12.603Z,58.70
2023-05-01T15:37:39.891Z,58.70
2023-05-01T15:40:08.016Z,59.10
2023-05-01T15:42:35.166Z,59.10
2023-05-01T15:45:03.585Z,59.50
2023-05-01T15:47:30.811Z,59.30
2023-05-01T15:49:58.205Z,59.70
2023-05-01T15:52:25.896Z,59.40
2023-05-01T15:54:53.014Z,59.90
2023-05-01T15:57:20.092Z,60.00
2023-05-01T15:59:51.483Z,60.30
2023-05-01T16:02:18.683Z,60.30
2023-05-01T16:04:48.994Z,59.80
2023-05-01T16:07:16.090Z,60.50
2023-05-01T16:09:43.254Z,60.50
2023-05-01T16:12:11.786Z,60.40
2023-05-01T16:14:42.273Z,60.90
2023-05-01T16:17:09.459Z,61.00
2023-05-01T16:19:37.206Z,60.80
2023-05-01T16:22:05.534Z,61.20
2023-05-01T16:24:34.003Z,60.90
2023-05-01T16:27:01.776Z,60.90
2023-05-01T16:29:29.097Z,61.00
2023-05-01T16:31:56.279Z,61.40
2023-05-01T16:34:27.634Z,61.60
2023-05-01T16:36:56.249Z,61.50
2023-05-01T16:39:24.064Z,61.20
2023-05-01T16:41:55.389Z,61.70
2023-05-01T16:44:23.633Z,62.00
2023-05-01T16:46:55.305Z,61.90
2023-05-01T16:49:29.715Z,62.00
2023-05-01T16:51:58.362Z,62.00
2023-05-01T16:54:35.489Z,62.10
2023-05-01T16:57:06.212Z,62.10
2023-05-01T16:59:34.518Z,62.30
2023-05-01T17:02:01.777Z,62.20
2023-05-01T17:04:29.416Z,62.40
2023-05-01T17:06:56.651Z,62.50
2023-05-01T17:09:23.843Z,62.30
2023-05-01T17:11:51.123Z,62.40
2023-05-01T17:14:19.145Z,62.50
2023-05-01T17:16:48.653Z,62.70
2023-05-01T17:19:17.318Z,62.50
2023-05-01T17:21:44.553Z,62.40
2023-05-01T17:24:13.195Z,62.60
2023-05-01T17:26:40.392Z,62.80
2023-05-01T17:29:07.553Z,65.40
2023-05-01T17:31:34.820Z,66.10
2023-05-01T17:34:02.073Z,66.70
2023-05-01T17:36:29.548Z,67.30
2023-05-01T17:38:56.952Z,67.80
2023-05-01T17:41:24.896Z,68.10
2023-05-01T17:43:52.139Z,68.50
2023-05-01T17:46:20.396Z,68.40
2023-05-01T17:48:48.895Z,68.50
2023-05-01T17:51:16.151Z,69.00
2023-05-01T17:53:43.246Z,69.00
2023-05-01T17:56:10.445Z,69.40
2023-05-01T17:58:37.586Z,69.80
2023-05-01T18:01:05.931Z,70.30
2023-05-01T18:03:33.441Z,71.00
2023-05-01T18:06:02.854Z,71.40
2023-05-01T18:08:30.282Z,72.30
2023-05-01T18:10:57.387Z,72.60
2023-05-01T18:13:28.236Z,73.30
2023-05-01T18:15:56.131Z,73.80
2023-05-01T18:18:23.808Z,74.70
2023-05-01T18:20:51.119Z,75.90
2023-05-01T18:23:19.013Z,77.20
2023-05-01T18:25:46.567Z,79.00
2023-05-01T18:28:16.632Z,81.00
2023-05-01T18:30:44.082Z,83.50
2023-05-01T18:33:12.396Z,87.80
2023-05-01T18:35:42.556Z,94.20
2023-05-01T18:38:13.044Z,99.90
2023-05-01T18:40:40.251Z,99.90
2023-05-01T18:43:07.499Z,99.90
2023-05-01T18:45:34.633Z,99.90
2023-05-01T18:48:01.941Z,99.90
2023-05-01T18:50:29.402Z,99.90
2023-05-01T18:52:56.525Z,99.90
2023-05-01T18:55:23.717Z,99.90
2023-05-01T18:57:51.221Z,99.90
2023-05-01T19:00:20.409Z,99.90
2023-05-01T19:02:52.029Z,99.90
2023-05-01T19:05:20.010Z,99.90
2023-05-01T19:07:47.306Z,99.90
2023-05-01T19:10:15.008Z,99.90
2023-05-01T19:12:42.336Z,99.90
2023-05-01T19:15:10.269Z,99.90
2023-05-01T19:17:37.873Z,99.90
2023-05-01T19:20:05.780Z,99.90
2023-05-01T19:22:32.916Z,99.90
2023-05-01T19:25:03.186Z,99.90
2023-05-01T19:27:30.344Z,99.90
2023-05-01T19:30:00.947Z,99.90
2023-05-01T19:32:28.676Z,99.90
2023-05-01T19:34:56.883Z,99.90
2023-05-01T19:37:24.156Z,99.90
2023-05-01T19:39:51.309Z,99.90
2023-05-01T19:42:18.610Z,99.90
2023-05-01T19:44:46.618Z,99.90
2023-05-01T19:47:13.840Z,99.90
2023-05-01T19:49:41.007Z,99.90
2023-05-01T19:52:08.143Z,99.90
2023-05-01T19:54:35.193Z,99.90
2023-05-01T19:57:02.400Z,99.90
2023-05-01T19:59:30.860Z,99.90
2023-05-01T20:02:00.485Z,99.90
2023-05-01T20:04:29.056Z,99.90
2023-05-01T20:06:56.162Z,99.90
2023-05-01T20:09:23.461Z,99.90
2023-05-01T20:11:51.307Z,99.90
2023-05-01T20:14:18.479Z,99.90
2023-05-01T20:16:46.250Z,99.90
2023-05-01T20:19:13.737Z,99.90
2023-05-01T20:21:40.913Z,99.90
2023-05-01T20:24:08.394Z,99.90
2023-05-01T20:26:35.608Z,99.90
2023-05-01T20:29:02.698Z,99.90
2023-05-01T20:31:29.897Z,99.90
2023-05-01T20:33:57.139Z,99.90
2023-05-01T20:36:25.536Z,99.90
2023-05-01T20:38:53.491Z,99.90
2023-05-01T20:41:20.914Z,99.90
2023-05-01T20:43:48.088Z,99.90
2023-05-01T20:46:15.312Z,99.90
2023-05-01T20:48:43.301Z,99.90
2023-05-01T20:51:10.593Z,99.90
2023-05-01T20:53:37.709Z,99.90
2023-05-01T20:56:05.496Z,99.90
2023-05-01T20:58:32.713Z,99.90
2023-05-01T21:01:00.527Z,99.90
2023-05-01T21:03:28.234Z,99.90
2023-05-01T21:06:02.605Z,99.90
2023-05-01T21:08:30.339Z,99.90
2023-05-01T21:10:58.139Z,99.90
2023-05-01T21:13:27.347Z,99.90
2023-05-01T21:15:55.010Z,99.90
2023-05-01T21:18:22.298Z,99.90
2023-05-01T21:20:49.850Z,99.90
2023-05-01T21:23:18.293Z,99.90
2023-05-01T21:25:45.464Z,99.90
2023-05-01T21:28:14.030Z,99.90
2023-05-01T21:30:41.671Z,99.90
2023-05-01T21:33:14.731Z,99.90
2023-05-01T21:35:44.392Z,99.90
2023-05-01T21:38:11.840Z,99.90
2023-05-01T21:40:41.396Z,99.90
2023-05-01T21:43:09.576Z,99.90
2023-05-01T21:45:40.619Z,99.90
2023-05-01T21:48:09.203Z,99.90
2023-05-01T21:50:40.237Z,99.90
2023-05-01T21:53:07.585Z,99.90
2023-05-01T21:55:34.887Z,99.90
2023-05-01T21:58:02.622Z,99.90
2023-05-01T22:00:30.293Z,99.90
2023-05-01T22:02:57.622Z,99.90
2023-05-01T22:05:24.887Z,99.90
2023-05-01T22:07:52.919Z,99.90
2023-05-01T22:10:20.469Z,99.90
2023-05-01T22:12:50.679Z,99.90
2023-05-01T22:15:17.896Z,99.90
2023-05-01T22:17:45.796Z,99.90
2023-05-01T22:20:13.116Z,99.90
2023-05-01T22:22:41.775Z,99.90
2023-05-01T22:25:10.108Z,99.90
2023-05-01T22:27:37.508Z,99.90
2023-05-01T22:30:05.807Z,99.90
2023-05-01T22:32:33.140Z,99.90
2023-05-01T22:35:00.302Z,99.90
2023-05-01T22:37:27.498Z,99.90
2023-05-01T22:39:54.716Z,99.90
2023-05-01T22:42:23.282Z,99.90
2023-05-01T22:44:50.477Z,99.90
2023-05-01T22:47:17.744Z,99.90
2023-05-01T22:49:45.151Z,99.90
2023-05-01T22:52:12.243Z,99.90
2023-05-01T22:54:39.451Z,99.90
2023-05-01T22:57:06.597Z,99.90
2023-05-01T22:59:33.751Z,99.90
2023-05-01T23:02:04.567Z,99.90
2023-05-01T23:04:32.501Z,99.90
2023-05-01T23:06:59.753Z,99.90
2023-05-01T23:09:26.994Z,99.90
2023-05-01T23:11:54.290Z,99.90
2023-05-01T23:14:21.564Z,99.90
2023-05-01T23:16:48.752Z,99.90
2023-05-01T23:19:21.839Z,99.90
2023-05-01T23:21:50.243Z,99.90
2023-05-01T23:24:19.418Z,99.90
2023-05-01T23:26:47.236Z,99.90
2023-05-01T23:29:16.293Z,99.90
2023-05-01T23:31:47.860Z,99.90
2023-05-01T23:34:18.902Z,99.90
2023-05-01T23:36:47.138Z,99.90
2023-05-01T23:39:14.790Z,99.90
2023-05-01T23:41:42.369Z,99.90
2023-05-01T23:44:10.254Z,99.90
2023-05-01T23:46:38.242Z,99.90
2023-05-01T23:49:05.591Z,99.90
2023-05-01T23:51:32.983Z,99.90
2023-05-01T23:54:00.689Z,99.90
2023-05-01T23:56:27.807Z,99.90
2023-05-01T23:58:54.840Z,99.90
